createdAt,value
2023-05-14T00:00:17.584Z,6.47
2023-05-14T00:06:19.350Z,6.30
2023-05-14T00:12:21.113Z,5.07
2023-05-14T00:18:23.139Z,5.67
2023-05-14T00:24:28.002Z,7.53
2023-05-14T00:30:30.064Z,7.27
2023-05-14T00:36:32.564Z,8.60
2023-05-14T00:42:43.963Z,7.73
2023-05-14T00:48:47.533Z,5.20
2023-05-14T00:54:53.044Z,5.67
2023-05-14T01:00:55.588Z,5.27
2023-05-14T01:07:09.073Z,5.77
2023-05-14T01:13:39.651Z,4.53
2023-05-14T01:19:53.072Z,4.47
2023-05-14T01:26:04.636Z,3.93
2023-05-14T01:32:11.212Z,3.73
2023-05-14T01:38:18.691Z,8.13
2023-05-14T01:44:25.911Z,6.57
2023-05-14T01:50:30.670Z,5.80
2023-05-14T01:56:33.147Z,4.60
2023-05-14T02:02:36.684Z,4.07
2023-05-14T02:08:41.054Z,3.20
2023-05-14T02:14:46.561Z,6.00
2023-05-14T02:20:49.026Z,6.87
2023-05-14T02:26:53.910Z,8.13
2023-05-14T02:32:57.031Z,5.57
2023-05-14T02:39:02.421Z,5.67
2023-05-14T02:45:06.833Z,5.43
2023-05-14T02:51:12.439Z,7.17
2023-05-14T02:57:14.826Z,6.90
2023-05-14T03:03:17.390Z,7.07
2023-05-14T03:09:22.785Z,7.43
2023-05-14T03:15:26.181Z,5.20
2023-05-14T03:21:33.770Z,7.60
2023-05-14T03:27:36.262Z,6.23
2023-05-14T03:33:41.723Z,5.30
2023-05-14T03:39:44.208Z,8.23
2023-05-14T03:45:52.878Z,6.60
2023-05-14T03:51:55.249Z,5.40
2023-05-14T03:58:17.316Z,6.07
2023-05-14T04:04:29.358Z,5.87
2023-05-14T04:10:42.073Z,6.20
2023-05-14T04:16:50.365Z,5.23
2023-05-14T04:23:02.432Z,5.67
2023-05-14T04:29:08.676Z,4.77
2023-05-14T04:35:11.774Z,5.90
2023-05-14T04:41:30.786Z,5.80
2023-05-14T04:47:33.871Z,5.50
2023-05-14T04:53:35.826Z,4.77
2023-05-14T04:59:41.758Z,5.83
2023-05-14T05:05:44.254Z,6.23
2023-05-14T05:11:49.718Z,6.43
2023-05-14T05:18:02.160Z,6.10
2023-05-14T05:24:09.061Z,7.47
2023-05-14T05:30:12.186Z,6.97
2023-05-14T05:36:14.638Z,5.70
2023-05-14T05:42:17.108Z,5.97
2023-05-14T05:48:22.639Z,7.63
2023-05-14T05:54:40.430Z,6.53
2023-05-14T06:00:49.955Z,6.37
2023-05-14T06:06:52.130Z,6.00
2023-05-14T06:12:54.554Z,5.10
2023-05-14T06:18:57.067Z,5.40
2023-05-14T06:25:20.931Z,5.63
2023-05-14T06:31:23.082Z,3.70
2023-05-14T06:37:31.151Z,3.38
2023-05-14T06:43:51.406Z,4.10
2023-05-14T06:49:53.573Z,3.70
2023-05-14T06:55:57.007Z,4.47
2023-05-14T07:01:59.567Z,4.40
2023-05-14T07:08:25.058Z,3.63
2023-05-14T07:14:29.822Z,3.33
2023-05-14T07:20:46.034Z,3.67
2023-05-14T07:26:59.854Z,3.17
2023-05-14T07:33:09.557Z,3.53
2023-05-14T07:39:37.687Z,3.50
2023-05-14T07:45:45.540Z,3.50
2023-05-14T07:51:47.658Z,3.67
2023-05-14T07:57:58.961Z,3.40
2023-05-14T08:04:03.777Z,3.00
2023-05-14T08:10:09.095Z,2.30
2023-05-14T08:16:11.585Z,2.37
2023-05-14T08:22:15.090Z,2.60
2023-05-14T08:28:27.839Z,2.80
2023-05-14T08:34:40.247Z,2.45
2023-05-14T08:40:43.569Z,1.95
2023-05-14T08:53:10.591Z,2.20
2023-05-14T08:59:16.117Z,2.33
2023-05-14T09:05:34.407Z,2.78
2023-05-14T09:11:51.196Z,2.75
2023-05-14T09:17:56.882Z,2.50
2023-05-14T09:24:00.640Z,2.58
2023-05-14T09:30:18.614Z,2.40
2023-05-14T09:36:21.126Z,2.25
2023-05-14T09:42:23.626Z,2.40
2023-05-14T09:48:27.095Z,2.50
2023-05-14T09:54:32.804Z,1.92
2023-05-14T10:00:37.079Z,2.00
2023-05-14T10:06:54.396Z,2.20
2023-05-14T10:13:15.358Z,2.00
2023-05-14T10:19:26.367Z,2.00
2023-05-14T10:25:31.494Z,2.45
2023-05-14T10:32:02.152Z,2.13
2023-05-14T10:38:10.279Z,1.92
2023-05-14T10:44:16.498Z,2.00
2023-05-14T10:50:24.427Z,2.00
2023-05-14T10:56:26.688Z,2.35
2023-05-14T11:02:33.911Z,2.05
2023-05-14T11:08:44.944Z,1.80
2023-05-14T11:14:48.244Z,1.98
2023-05-14T11:20:53.693Z,2.25
2023-05-14T11:27:00.217Z,2.17
2023-05-14T11:33:05.735Z,2.42
2023-05-14T11:39:12.629Z,2.38
2023-05-14T11:45:27.716Z,2.55
2023-05-14T11:51:45.271Z,2.30
2023-05-14T11:57:47.751Z,2.13
2023-05-14T12:03:51.300Z,2.50
2023-05-14T12:09:56.380Z,1.95
2023-05-14T12:16:07.227Z,2.35
2023-05-14T12:22:18.822Z,2.25
2023-05-14T12:28:24.520Z,2.05
2023-05-14T12:34:33.135Z,2.60
2023-05-14T12:40:37.197Z,2.20
2023-05-14T12:46:39.282Z,1.85
2023-05-14T12:52:41.065Z,2.00
2023-05-14T12:58:43.201Z,2.00
2023-05-14T13:04:45.851Z,1.67
2023-05-14T13:10:48.287Z,2.10
2023-05-14T13:16:50.122Z,1.67
2023-05-14T13:22:55.513Z,1.80
2023-05-14T13:29:01.120Z,1.88
2023-05-14T13:35:03.543Z,1.90
2023-05-14T13:41:05.885Z,1.48
2023-05-14T13:47:10.654Z,1.80
2023-05-14T13:53:31.364Z,1.70
2023-05-14T13:59:33.571Z,1.80
2023-05-14T14:05:38.708Z,1.83
2023-05-14T14:11:42.541Z,1.90
2023-05-14T14:17:47.070Z,1.75
2023-05-14T14:23:49.476Z,2.13
2023-05-14T14:29:51.943Z,2.25
2023-05-14T14:36:10.117Z,2.00
2023-05-14T14:42:21.722Z,1.75
2023-05-14T14:48:33.555Z,1.60
2023-05-14T14:54:41.009Z,1.75
2023-05-14T15:00:46.468Z,1.55
2023-05-14T15:06:48.973Z,1.55
2023-05-14T15:12:51.456Z,1.52
2023-05-14T15:19:03.018Z,2.30
2023-05-14T15:25:06.374Z,1.80
2023-05-14T15:31:19.296Z,1.70
2023-05-14T15:37:22.339Z,1.98
2023-05-14T15:43:27.855Z,2.47
2023-05-14T15:49:31.309Z,1.70
2023-05-14T15:55:39.870Z,2.10
2023-05-14T16:01:44.345Z,2.17
2023-05-14T16:07:55.232Z,1.58
2023-05-14T16:14:00.340Z,1.95
2023-05-14T16:20:08.808Z,1.90
2023-05-14T16:26:14.322Z,2.03
2023-05-14T16:32:16.897Z,2.10
2023-05-14T16:38:20.318Z,1.80
2023-05-14T16:44:31.462Z,2.30
2023-05-14T16:50:34.316Z,2.45
2023-05-14T16:56:37.747Z,2.55
2023-05-14T17:02:40.274Z,2.60
2023-05-14T17:08:42.783Z,2.30
2023-05-14T17:14:45.275Z,2.03
2023-05-14T17:20:47.720Z,2.08
2023-05-14T17:26:50.164Z,2.00
2023-05-14T17:32:54.650Z,2.10
2023-05-14T17:38:57.151Z,2.20
2023-05-14T17:44:59.629Z,2.23
2023-05-14T17:51:02.162Z,2.53
2023-05-14T17:57:16.290Z,2.43
2023-05-14T18:03:22.305Z,1.97
2023-05-14T18:09:27.709Z,2.80
2023-05-14T18:15:32.247Z,2.03
2023-05-14T18:21:40.741Z,2.33
2023-05-14T18:27:50.473Z,1.97
2023-05-14T18:34:07.071Z,2.07
2023-05-14T18:40:18.684Z,3.23
2023-05-14T18:46:36.962Z,2.50
2023-05-14T18:52:51.635Z,3.60
2023-05-14T18:59:11.480Z,3.20
2023-05-14T19:05:16.333Z,2.97
2023-05-14T19:11:20.845Z,3.17
2023-05-14T19:17:33.567Z,2.33
2023-05-14T19:23:41.883Z,3.33
2023-05-14T19:29:52.434Z,2.70
2023-05-14T19:35:57.869Z,2.40
2023-05-14T19:42:10.409Z,2.20
2023-05-14T19:48:16.090Z,2.70
2023-05-14T19:54:21.323Z,2.20
2023-05-14T20:00:24.160Z,2.30
2023-05-14T20:06:35.666Z,2.57
2023-05-14T20:12:43.372Z,2.37
2023-05-14T20:19:00.374Z,2.10
2023-05-14T20:25:02.845Z,2.20
2023-05-14T20:31:11.259Z,2.03
2023-05-14T20:37:26.220Z,1.70
2023-05-14T20:43:36.800Z,2.77
2023-05-14T20:49:57.180Z,2.47
2023-05-14T20:56:59.417Z,2.10
2023-05-14T21:03:10.373Z,1.93
2023-05-14T21:09:39.916Z,1.73
2023-05-14T21:15:45.156Z,1.90
2023-05-14T21:22:01.772Z,1.50
2023-05-14T21:28:40.257Z,2.50
2023-05-14T21:34:47.852Z,2.13
2023-05-14T21:41:50.067Z,2.67
2023-05-14T21:48:03.175Z,2.13
2023-05-14T21:54:11.661Z,2.30
2023-05-14T22:00:51.219Z,2.23
2023-05-14T22:07:10.666Z,2.43
2023-05-14T22:13:13.265Z,2.20
2023-05-14T22:26:20.129Z,2.37
2023-05-14T22:32:46.933Z,2.17
2023-05-14T22:45:41.699Z,1.60
2023-05-14T22:51:58.732Z,2.30
2023-05-14T22:58:01.261Z,1.83
2023-05-14T23:04:03.746Z,2.00
2023-05-14T23:10:27.090Z,1.70
2023-05-14T23:16:36.700Z,1.90
2023-05-14T23:22:40.266Z,2.17
2023-05-14T23:28:42.703Z,3.20
2023-05-14T23:34:48.186Z,2.10
2023-05-14T23:40:53.667Z,2.20
2023-05-14T23:46:57.140Z,1.93
2023-05-14T23:52:59.605Z,2.00
2023-05-14T23:59:05.034Z,2.10
